sensor_id;sensor_type;location;lat;lon;timestamp;temperature;humidity
65038;DHT22;51605;47.040;15.294;2023-03-24T00:01:01;20.90;56.10
65038;DHT22;51605;47.040;15.294;2023-03-24T00:03:28;20.90;55.90
65038;DHT22;51605;47.040;15.294;2023-03-24T00:05:56;20.90;56.00
65038;DHT22;51605;47.040;15.294;2023-03-24T00:08:23;20.80;55.90
65038;DHT22;51605;47.040;15.294;2023-03-24T00:10:49;20.90;56.00
65038;DHT22;51605;47.040;15.294;2023-03-24T00:13:15;20.90;56.10
65038;DHT22;51605;47.040;15.294;2023-03-24T00:15:41;20.90;56.00
65038;DHT22;51605;47.040;15.294;2023-03-24T00:18:07;20.80;56.00
65038;DHT22;51605;47.040;15.294;2023-03-24T00:20:35;20.90;56.10
65038;DHT22;51605;47.040;15.294;2023-03-24T00:23:01;20.80;56.00
65038;DHT22;51605;47.040;15.294;2023-03-24T00:25:28;20.90;56.10
65038;DHT22;51605;47.040;15.294;2023-03-24T00:27:58;20.90;56.10
65038;DHT22;51605;47.040;15.294;2023-03-24T00:30:25;20.90;56.10
65038;DHT22;51605;47.040;15.294;2023-03-24T00:32:51;20.90;56.10
65038;DHT22;51605;47.040;15.294;2023-03-24T00:35:17;20.90;56.10
65038;DHT22;51605;47.040;15.294;2023-03-24T00:37:43;20.90;56.10
65038;DHT22;51605;47.040;15.294;2023-03-24T00:40:12;20.90;56.00
65038;DHT22;51605;47.040;15.294;2023-03-24T00:42:40;20.90;56.00
65038;DHT22;51605;47.040;15.294;2023-03-24T00:45:06;20.90;56.00
65038;DHT22;51605;47.040;15.294;2023-03-24T00:47:33;20.90;56.10
65038;DHT22;51605;47.040;15.294;2023-03-24T00:50:07;20.90;56.00
65038;DHT22;51605;47.040;15.294;2023-03-24T00:52:34;20.90;56.00
65038;DHT22;51605;47.040;15.294;2023-03-24T00:55:01;20.90;56.00
65038;DHT22;51605;47.040;15.294;2023-03-24T00:57:29;20.80;55.90
65038;DHT22;51605;47.040;15.294;2023-03-24T01:00:00;20.90;56.00
65038;DHT22;51605;47.040;15.294;2023-03-24T01:02:31;20.90;56.00
65038;DHT22;51605;47.040;15.294;2023-03-24T01:04:59;20.90;56.00
65038;DHT22;51605;47.040;15.294;2023-03-24T01:07:28;20.90;56.00
65038;DHT22;51605;47.040;15.294;2023-03-24T01:09:56;20.90;56.00
65038;DHT22;51605;47.040;15.294;2023-03-24T01:12:30;20.90;56.00
65038;DHT22;51605;47.040;15.294;2023-03-24T01:14:58;20.90;56.00
65038;DHT22;51605;47.040;15.294;2023-03-24T01:17:24;20.90;56.00
65038;DHT22;51605;47.040;15.294;2023-03-24T01:19:51;20.90;56.10
65038;DHT22;51605;47.040;15.294;2023-03-24T01:22:17;20.90;56.00
65038;DHT22;51605;47.040;15.294;2023-03-24T01:24:48;20.90;56.10
65038;DHT22;51605;47.040;15.294;2023-03-24T01:27:14;20.90;56.00
65038;DHT22;51605;47.040;15.294;2023-03-24T01:29:40;20.90;56.00
65038;DHT22;51605;47.040;15.294;2023-03-24T01:32:07;20.90;57.00
65038;DHT22;51605;47.040;15.294;2023-03-24T01:34:33;20.90;56.00
65038;DHT22;51605;47.040;15.294;2023-03-24T01:37:00;20.90;56.00
65038;DHT22;51605;47.040;15.294;2023-03-24T01:39:28;20.90;56.00
65038;DHT22;51605;47.040;15.294;2023-03-24T01:41:54;20.90;56.00
65038;DHT22;51605;47.040;15.294;2023-03-24T01:46:50;20.90;56.90
65038;DHT22;51605;47.040;15.294;2023-03-24T01:49:16;20.90;55.90
65038;DHT22;51605;47.040;15.294;2023-03-24T01:51:45;20.90;55.90
65038;DHT22;51605;47.040;15.294;2023-03-24T01:54:31;20.90;55.90
65038;DHT22;51605;47.040;15.294;2023-03-24T01:57:34;20.90;55.90
65038;DHT22;51605;47.040;15.294;2023-03-24T02:00:08;20.90;55.90
65038;DHT22;51605;47.040;15.294;2023-03-24T02:02:35;20.90;55.80
65038;DHT22;51605;47.040;15.294;2023-03-24T02:05:05;20.90;55.80
65038;DHT22;51605;47.040;15.294;2023-03-24T02:07:39;20.90;55.90
65038;DHT22;51605;47.040;15.294;2023-03-24T02:10:10;20.90;56.00
65038;DHT22;51605;47.040;15.294;2023-03-24T02:12:37;20.90;55.90
65038;DHT22;51605;47.040;15.294;2023-03-24T02:15:04;20.90;55.90
65038;DHT22;51605;47.040;15.294;2023-03-24T02:20:41;20.90;55.80
65038;DHT22;51605;47.040;15.294;2023-03-24T02:32:08;20.90;55.90
65038;DHT22;51605;47.040;15.294;2023-03-24T02:46:04;20.90;56.00
65038;DHT22;51605;47.040;15.294;2023-03-24T02:48:57;20.90;56.00
65038;DHT22;51605;47.040;15.294;2023-03-24T02:51:45;20.90;56.00
65038;DHT22;51605;47.040;15.294;2023-03-24T02:54:18;20.90;56.00
65038;DHT22;51605;47.040;15.294;2023-03-24T02:57:30;20.90;55.90
65038;DHT22;51605;47.040;15.294;2023-03-24T03:02:30;20.80;55.80
65038;DHT22;51605;47.040;15.294;2023-03-24T03:05:06;20.90;55.90
65038;DHT22;51605;47.040;15.294;2023-03-24T03:07:38;20.90;55.80
65038;DHT22;51605;47.040;15.294;2023-03-24T03:12:38;20.90;55.80
65038;DHT22;51605;47.040;15.294;2023-03-24T03:15:08;20.90;55.90
65038;DHT22;51605;47.040;15.294;2023-03-24T03:17:59;20.90;55.90
65038;DHT22;51605;47.040;15.294;2023-03-24T03:20:28;20.90;56.00
65038;DHT22;51605;47.040;15.294;2023-03-24T03:23:06;20.90;55.90
65038;DHT22;51605;47.040;15.294;2023-03-24T03:25:36;20.90;55.80
65038;DHT22;51605;47.040;15.294;2023-03-24T03:28:07;20.90;55.80
65038;DHT22;51605;47.040;15.294;2023-03-24T03:30:38;20.90;55.80
65038;DHT22;51605;47.040;15.294;2023-03-24T03:33:17;20.90;55.90
65038;DHT22;51605;47.040;15.294;2023-03-24T03:36:14;20.90;55.90
65038;DHT22;51605;47.040;15.294;2023-03-24T03:41:41;20.90;56.00
65038;DHT22;51605;47.040;15.294;2023-03-24T03:44:08;20.90;55.80
65038;DHT22;51605;47.040;15.294;2023-03-24T03:46:34;20.90;55.80
65038;DHT22;51605;47.040;15.294;2023-03-24T03:49:01;20.80;55.80
65038;DHT22;51605;47.040;15.294;2023-03-24T03:51:27;20.90;55.80
65038;DHT22;51605;47.040;15.294;2023-03-24T03:53:58;20.90;55.80
65038;DHT22;51605;47.040;15.294;2023-03-24T03:56:27;20.90;55.80
65038;DHT22;51605;47.040;15.294;2023-03-24T03:58:53;20.90;55.80
65038;DHT22;51605;47.040;15.294;2023-03-24T04:01:24;20.90;55.70
65038;DHT22;51605;47.040;15.294;2023-03-24T04:06:58;20.90;55.80
65038;DHT22;51605;47.040;15.294;2023-03-24T04:12:40;20.90;55.80
65038;DHT22;51605;47.040;15.294;2023-03-24T04:23:30;20.90;55.80
65038;DHT22;51605;47.040;15.294;2023-03-24T04:26:47;20.80;55.80
65038;DHT22;51605;47.040;15.294;2023-03-24T04:32:01;20.80;55.70
65038;DHT22;51605;47.040;15.294;2023-03-24T04:34:36;20.80;55.80
65038;DHT22;51605;47.040;15.294;2023-03-24T04:39:33;20.80;55.80
65038;DHT22;51605;47.040;15.294;2023-03-24T04:42:07;20.80;55.80
65038;DHT22;51605;47.040;15.294;2023-03-24T04:44:35;20.80;56.70
65038;DHT22;51605;47.040;15.294;2023-03-24T04:47:02;20.90;55.80
65038;DHT22;51605;47.040;15.294;2023-03-24T04:49:29;20.90;55.80
65038;DHT22;51605;47.040;15.294;2023-03-24T04:51:55;20.80;55.80
65038;DHT22;51605;47.040;15.294;2023-03-24T04:54:22;20.90;55.80
65038;DHT22;51605;47.040;15.294;2023-03-24T04:56:50;20.80;55.70
65038;DHT22;51605;47.040;15.294;2023-03-24T04:59:16;20.90;55.80
65038;DHT22;51605;47.040;15.294;2023-03-24T05:01:44;20.90;55.80
65038;DHT22;51605;47.040;15.294;2023-03-24T05:04:17;20.90;55.80
65038;DHT22;51605;47.040;15.294;2023-03-24T05:06:43;20.90;55.70
65038;DHT22;51605;47.040;15.294;2023-03-24T05:09:14;20.90;55.70
65038;DHT22;51605;47.040;15.294;2023-03-24T05:11:42;20.90;55.70
65038;DHT22;51605;47.040;15.294;2023-03-24T05:14:08;20.90;55.70
65038;DHT22;51605;47.040;15.294;2023-03-24T05:16:34;20.90;55.70
65038;DHT22;51605;47.040;15.294;2023-03-24T05:19:01;20.90;55.80
65038;DHT22;51605;47.040;15.294;2023-03-24T05:21:27;20.80;55.70
65038;DHT22;51605;47.040;15.294;2023-03-24T05:23:52;20.90;55.70
65038;DHT22;51605;47.040;15.294;2023-03-24T05:26:18;20.90;55.70
65038;DHT22;51605;47.040;15.294;2023-03-24T05:28:44;20.90;55.70
65038;DHT22;51605;47.040;15.294;2023-03-24T05:31:09;20.90;55.70
65038;DHT22;51605;47.040;15.294;2023-03-24T05:33:35;20.90;55.70
65038;DHT22;51605;47.040;15.294;2023-03-24T05:36:01;20.90;55.70
65038;DHT22;51605;47.040;15.294;2023-03-24T05:38:27;20.90;55.70
65038;DHT22;51605;47.040;15.294;2023-03-24T05:40:56;20.90;55.70
65038;DHT22;51605;47.040;15.294;2023-03-24T05:43:22;20.90;55.70
65038;DHT22;51605;47.040;15.294;2023-03-24T05:45:48;20.90;55.70
65038;DHT22;51605;47.040;15.294;2023-03-24T05:48:14;20.90;55.80
65038;DHT22;51605;47.040;15.294;2023-03-24T05:50:40;20.90;55.70
65038;DHT22;51605;47.040;15.294;2023-03-24T05:53:05;20.90;55.70
65038;DHT22;51605;47.040;15.294;2023-03-24T05:55:31;20.90;55.70
65038;DHT22;51605;47.040;15.294;2023-03-24T05:57:57;20.90;55.70
65038;DHT22;51605;47.040;15.294;2023-03-24T06:00:29;20.90;55.70
65038;DHT22;51605;47.040;15.294;2023-03-24T06:02:57;20.90;55.60
65038;DHT22;51605;47.040;15.294;2023-03-24T06:05:23;20.90;55.70
65038;DHT22;51605;47.040;15.294;2023-03-24T06:07:48;20.90;55.70
65038;DHT22;51605;47.040;15.294;2023-03-24T06:10:14;20.90;55.70
65038;DHT22;51605;47.040;15.294;2023-03-24T06:12:43;20.90;55.70
65038;DHT22;51605;47.040;15.294;2023-03-24T06:15:09;20.80;55.70
65038;DHT22;51605;47.040;15.294;2023-03-24T06:17:35;20.90;55.70
65038;DHT22;51605;47.040;15.294;2023-03-24T06:20:03;20.90;55.70
65038;DHT22;51605;47.040;15.294;2023-03-24T06:22:31;20.90;55.60
65038;DHT22;51605;47.040;15.294;2023-03-24T06:24:57;20.90;55.60
65038;DHT22;51605;47.040;15.294;2023-03-24T06:27:24;20.90;55.70
65038;DHT22;51605;47.040;15.294;2023-03-24T06:29:50;20.90;55.80
65038;DHT22;51605;47.040;15.294;2023-03-24T06:32:20;20.90;55.80
65038;DHT22;51605;47.040;15.294;2023-03-24T06:34:45;20.90;55.70
65038;DHT22;51605;47.040;15.294;2023-03-24T06:37:11;20.90;55.80
65038;DHT22;51605;47.040;15.294;2023-03-24T06:39:36;20.90;55.80
65038;DHT22;51605;47.040;15.294;2023-03-24T06:42:03;20.90;55.80
65038;DHT22;51605;47.040;15.294;2023-03-24T06:44:29;20.90;56.00
65038;DHT22;51605;47.040;15.294;2023-03-24T06:46:55;20.90;56.00
65038;DHT22;51605;47.040;15.294;2023-03-24T06:49:21;20.90;55.70
65038;DHT22;51605;47.040;15.294;2023-03-24T06:51:47;20.90;55.70
65038;DHT22;51605;47.040;15.294;2023-03-24T06:54:12;20.90;55.70
65038;DHT22;51605;47.040;15.294;2023-03-24T06:56:38;20.90;55.80
65038;DHT22;51605;47.040;15.294;2023-03-24T06:59:04;20.90;55.80
65038;DHT22;51605;47.040;15.294;2023-03-24T07:01:30;20.90;55.80
65038;DHT22;51605;47.040;15.294;2023-03-24T07:03:56;20.90;55.80
65038;DHT22;51605;47.040;15.294;2023-03-24T07:06:22;20.80;55.70
65038;DHT22;51605;47.040;15.294;2023-03-24T07:08:49;20.90;55.80
65038;DHT22;51605;47.040;15.294;2023-03-24T07:11:15;20.90;55.80
65038;DHT22;51605;47.040;15.294;2023-03-24T07:13:41;20.90;55.70
65038;DHT22;51605;47.040;15.294;2023-03-24T07:16:07;20.90;55.70
65038;DHT22;51605;47.040;15.294;2023-03-24T07:18:33;20.90;55.80
65038;DHT22;51605;47.040;15.294;2023-03-24T07:20:58;20.80;55.70
65038;DHT22;51605;47.040;15.294;2023-03-24T07:23:24;20.90;55.70
65038;DHT22;51605;47.040;15.294;2023-03-24T07:25:52;20.90;55.70
65038;DHT22;51605;47.040;15.294;2023-03-24T07:28:18;20.80;55.60
65038;DHT22;51605;47.040;15.294;2023-03-24T07:30:44;20.80;55.60
65038;DHT22;51605;47.040;15.294;2023-03-24T07:33:10;20.80;55.60
65038;DHT22;51605;47.040;15.294;2023-03-24T07:35:37;20.80;55.60
65038;DHT22;51605;47.040;15.294;2023-03-24T07:38:03;20.80;55.50
65038;DHT22;51605;47.040;15.294;2023-03-24T07:40:29;20.80;55.50
65038;DHT22;51605;47.040;15.294;2023-03-24T07:42:59;20.80;55.70
65038;DHT22;51605;47.040;15.294;2023-03-24T07:45:25;20.80;55.70
65038;DHT22;51605;47.040;15.294;2023-03-24T07:47:51;20.80;55.60
65038;DHT22;51605;47.040;15.294;2023-03-24T07:50:17;20.80;55.60
65038;DHT22;51605;47.040;15.294;2023-03-24T07:52:47;20.80;55.60
65038;DHT22;51605;47.040;15.294;2023-03-24T07:55:13;20.80;56.60
65038;DHT22;51605;47.040;15.294;2023-03-24T07:57:47;20.80;55.50
65038;DHT22;51605;47.040;15.294;2023-03-24T08:00:13;20.80;55.50
65038;DHT22;51605;47.040;15.294;2023-03-24T08:02:44;20.80;55.50
65038;DHT22;51605;47.040;15.294;2023-03-24T08:05:11;20.80;55.80
65038;DHT22;51605;47.040;15.294;2023-03-24T08:07:43;20.80;55.50
65038;DHT22;51605;47.040;15.294;2023-03-24T08:10:13;20.80;55.60
65038;DHT22;51605;47.040;15.294;2023-03-24T08:12:40;20.80;55.60
65038;DHT22;51605;47.040;15.294;2023-03-24T08:15:07;20.80;55.70
65038;DHT22;51605;47.040;15.294;2023-03-24T08:17:34;20.80;55.80
65038;DHT22;51605;47.040;15.294;2023-03-24T08:20:00;20.80;55.70
65038;DHT22;51605;47.040;15.294;2023-03-24T08:22:29;20.80;55.60
65038;DHT22;51605;47.040;15.294;2023-03-24T08:24:54;20.80;55.60
65038;DHT22;51605;47.040;15.294;2023-03-24T08:27:20;20.80;55.60
65038;DHT22;51605;47.040;15.294;2023-03-24T08:29:46;20.80;55.60
65038;DHT22;51605;47.040;15.294;2023-03-24T08:32:11;20.80;55.70
65038;DHT22;51605;47.040;15.294;2023-03-24T08:34:37;20.80;55.70
65038;DHT22;51605;47.040;15.294;2023-03-24T08:37:03;20.80;55.70
65038;DHT22;51605;47.040;15.294;2023-03-24T08:39:28;20.80;55.70
65038;DHT22;51605;47.040;15.294;2023-03-24T08:41:56;20.80;55.70
65038;DHT22;51605;47.040;15.294;2023-03-24T08:44:22;20.80;55.70
65038;DHT22;51605;47.040;15.294;2023-03-24T08:46:48;20.80;55.80
65038;DHT22;51605;47.040;15.294;2023-03-24T08:49:13;20.80;55.70
65038;DHT22;51605;47.040;15.294;2023-03-24T08:51:39;20.80;55.70
65038;DHT22;51605;47.040;15.294;2023-03-24T08:54:04;20.80;55.70
65038;DHT22;51605;47.040;15.294;2023-03-24T08:56:30;20.80;55.70
65038;DHT22;51605;47.040;15.294;2023-03-24T08:58:56;20.80;55.70
65038;DHT22;51605;47.040;15.294;2023-03-24T09:01:22;20.80;55.80
65038;DHT22;51605;47.040;15.294;2023-03-24T09:03:48;20.80;55.70
65038;DHT22;51605;47.040;15.294;2023-03-24T09:06:14;20.80;55.70
65038;DHT22;51605;47.040;15.294;2023-03-24T09:08:40;20.80;55.80
65038;DHT22;51605;47.040;15.294;2023-03-24T09:11:10;20.80;55.70
65038;DHT22;51605;47.040;15.294;2023-03-24T09:13:38;20.80;55.70
65038;DHT22;51605;47.040;15.294;2023-03-24T09:16:03;20.80;55.70
65038;DHT22;51605;47.040;15.294;2023-03-24T09:18:29;20.80;55.80
65038;DHT22;51605;47.040;15.294;2023-03-24T09:20:56;20.80;55.80
65038;DHT22;51605;47.040;15.294;2023-03-24T09:23:21;20.80;55.80
65038;DHT22;51605;47.040;15.294;2023-03-24T09:25:48;20.80;55.70
65038;DHT22;51605;47.040;15.294;2023-03-24T09:28:14;20.80;55.70
65038;DHT22;51605;47.040;15.294;2023-03-24T09:30:41;20.80;55.60
65038;DHT22;51605;47.040;15.294;2023-03-24T09:33:07;20.90;55.50
65038;DHT22;51605;47.040;15.294;2023-03-24T09:35:33;20.80;55.50
65038;DHT22;51605;47.040;15.294;2023-03-24T09:37:58;20.90;55.50
65038;DHT22;51605;47.040;15.294;2023-03-24T09:40:27;20.80;55.50
65038;DHT22;51605;47.040;15.294;2023-03-24T09:43:00;20.80;55.70
65038;DHT22;51605;47.040;15.294;2023-03-24T09:45:28;20.80;55.80
65038;DHT22;51605;47.040;15.294;2023-03-24T09:47:59;20.80;55.70
65038;DHT22;51605;47.040;15.294;2023-03-24T09:50:32;20.80;55.70
65038;DHT22;51605;47.040;15.294;2023-03-24T09:53:04;20.80;55.70
65038;DHT22;51605;47.040;15.294;2023-03-24T09:55:31;20.80;55.70
65038;DHT22;51605;47.040;15.294;2023-03-24T09:58:05;20.80;55.80
65038;DHT22;51605;47.040;15.294;2023-03-24T10:00:33;20.80;55.80
65038;DHT22;51605;47.040;15.294;2023-03-24T10:03:16;20.80;55.70
65038;DHT22;51605;47.040;15.294;2023-03-24T10:08:47;20.80;55.80
65038;DHT22;51605;47.040;15.294;2023-03-24T10:14:09;20.80;55.70
65038;DHT22;51605;47.040;15.294;2023-03-24T10:22:05;20.80;55.70
65038;DHT22;51605;47.040;15.294;2023-03-24T10:27:43;20.80;55.80
65038;DHT22;51605;47.040;15.294;2023-03-24T10:30:18;20.80;55.80
65038;DHT22;51605;47.040;15.294;2023-03-24T10:32:45;20.80;55.70
65038;DHT22;51605;47.040;15.294;2023-03-24T10:35:23;20.80;55.70
65038;DHT22;51605;47.040;15.294;2023-03-24T10:37:51;20.80;55.70
65038;DHT22;51605;47.040;15.294;2023-03-24T10:40:19;20.80;55.80
65038;DHT22;51605;47.040;15.294;2023-03-24T10:42:47;20.80;55.70
65038;DHT22;51605;47.040;15.294;2023-03-24T10:45:16;20.80;55.70
65038;DHT22;51605;47.040;15.294;2023-03-24T10:47:44;20.80;56.20
65038;DHT22;51605;47.040;15.294;2023-03-24T10:50:11;20.80;56.10
65038;DHT22;51605;47.040;15.294;2023-03-24T10:52:42;20.80;56.10
65038;DHT22;51605;47.040;15.294;2023-03-24T10:55:14;20.80;56.30
65038;DHT22;51605;47.040;15.294;2023-03-24T10:57:43;20.90;56.40
65038;DHT22;51605;47.040;15.294;2023-03-24T11:00:18;20.90;56.50
65038;DHT22;51605;47.040;15.294;2023-03-24T11:02:53;20.90;56.70
65038;DHT22;51605;47.040;15.294;2023-03-24T11:05:20;20.90;56.60
65038;DHT22;51605;47.040;15.294;2023-03-24T11:07:49;20.90;56.50
65038;DHT22;51605;47.040;15.294;2023-03-24T11:10:18;20.90;56.50
65038;DHT22;51605;47.040;15.294;2023-03-24T11:15:21;20.90;56.50
65038;DHT22;51605;47.040;15.294;2023-03-24T11:17:54;20.90;56.40
65038;DHT22;51605;47.040;15.294;2023-03-24T11:20:34;20.90;56.50
65038;DHT22;51605;47.040;15.294;2023-03-24T11:25:32;20.90;56.40
65038;DHT22;51605;47.040;15.294;2023-03-24T11:28:00;20.90;56.50
65038;DHT22;51605;47.040;15.294;2023-03-24T11:30:32;20.90;56.40
65038;DHT22;51605;47.040;15.294;2023-03-24T11:32:59;20.90;56.20
65038;DHT22;51605;47.040;15.294;2023-03-24T11:35:25;21.00;56.10
65038;DHT22;51605;47.040;15.294;2023-03-24T11:37:51;21.00;56.00
65038;DHT22;51605;47.040;15.294;2023-03-24T11:45:39;21.00;55.90
65038;DHT22;51605;47.040;15.294;2023-03-24T11:48:48;20.90;55.80
65038;DHT22;51605;47.040;15.294;2023-03-24T11:51:37;20.90;55.80
65038;DHT22;51605;47.040;15.294;2023-03-24T11:54:13;20.90;55.80
65038;DHT22;51605;47.040;15.294;2023-03-24T11:56:52;20.90;55.80
65038;DHT22;51605;47.040;15.294;2023-03-24T12:07:29;20.80;55.90
65038;DHT22;51605;47.040;15.294;2023-03-24T12:17:41;20.80;56.00
65038;DHT22;51605;47.040;15.294;2023-03-24T12:20:31;20.90;56.40
65038;DHT22;51605;47.040;15.294;2023-03-24T12:33:47;20.90;56.30
65038;DHT22;51605;47.040;15.294;2023-03-24T12:39:14;20.90;56.00
65038;DHT22;51605;47.040;15.294;2023-03-24T12:42:10;20.90;56.20
65038;DHT22;51605;47.040;15.294;2023-03-24T12:53:38;20.90;56.40
65038;DHT22;51605;47.040;15.294;2023-03-24T12:58:50;21.00;56.30
65038;DHT22;51605;47.040;15.294;2023-03-24T13:01:20;20.90;56.30
65038;DHT22;51605;47.040;15.294;2023-03-24T13:03:53;21.00;56.40
65038;DHT22;51605;47.040;15.294;2023-03-24T13:06:26;21.00;56.60
65038;DHT22;51605;47.040;15.294;2023-03-24T13:09:20;21.00;56.50
65038;DHT22;51605;47.040;15.294;2023-03-24T13:12:04;21.00;56.50
65038;DHT22;51605;47.040;15.294;2023-03-24T13:17:38;21.00;56.40
65038;DHT22;51605;47.040;15.294;2023-03-24T13:20:05;21.10;56.40
65038;DHT22;51605;47.040;15.294;2023-03-24T13:22:34;21.10;56.50
65038;DHT22;51605;47.040;15.294;2023-03-24T13:25:01;21.10;56.60
65038;DHT22;51605;47.040;15.294;2023-03-24T13:27:34;21.10;56.60
65038;DHT22;51605;47.040;15.294;2023-03-24T13:32:38;21.10;56.50
65038;DHT22;51605;47.040;15.294;2023-03-24T13:37:53;21.10;56.50
65038;DHT22;51605;47.040;15.294;2023-03-24T13:40:28;21.10;56.40
65038;DHT22;51605;47.040;15.294;2023-03-24T13:42:56;21.10;56.40
65038;DHT22;51605;47.040;15.294;2023-03-24T13:45:49;21.10;56.30
65038;DHT22;51605;47.040;15.294;2023-03-24T13:51:14;21.00;57.20
65038;DHT22;51605;47.040;15.294;2023-03-24T13:53:50;21.00;56.30
65038;DHT22;51605;47.040;15.294;2023-03-24T13:59:32;21.00;56.50
65038;DHT22;51605;47.040;15.294;2023-03-24T14:02:18;21.00;56.30
65038;DHT22;51605;47.040;15.294;2023-03-24T14:15:31;21.20;56.60
65038;DHT22;51605;47.040;15.294;2023-03-24T14:26:06;21.20;56.80
65038;DHT22;51605;47.040;15.294;2023-03-24T14:28:37;21.20;56.70
65038;DHT22;51605;47.040;15.294;2023-03-24T14:34:33;21.10;56.60
65038;DHT22;51605;47.040;15.294;2023-03-24T14:37:00;21.10;56.70
65038;DHT22;51605;47.040;15.294;2023-03-24T14:39:44;21.10;56.60
65038;DHT22;51605;47.040;15.294;2023-03-24T14:45:02;21.10;56.50
65038;DHT22;51605;47.040;15.294;2023-03-24T14:47:34;21.10;56.50
65038;DHT22;51605;47.040;15.294;2023-03-24T14:50:11;21.10;56.50
65038;DHT22;51605;47.040;15.294;2023-03-24T14:52:42;21.10;56.50
65038;DHT22;51605;47.040;15.294;2023-03-24T14:55:11;21.10;56.50
65038;DHT22;51605;47.040;15.294;2023-03-24T14:57:43;21.10;56.50
65038;DHT22;51605;47.040;15.294;2023-03-24T15:00:41;21.10;56.40
65038;DHT22;51605;47.040;15.294;2023-03-24T15:03:33;21.10;56.50
65038;DHT22;51605;47.040;15.294;2023-03-24T15:06:18;21.10;56.40
65038;DHT22;51605;47.040;15.294;2023-03-24T15:08:55;21.10;56.40
65038;DHT22;51605;47.040;15.294;2023-03-24T15:11:26;21.10;57.30
65038;DHT22;51605;47.040;15.294;2023-03-24T15:13:54;21.10;56.30
65038;DHT22;51605;47.040;15.294;2023-03-24T15:16:22;21.10;56.30
65038;DHT22;51605;47.040;15.294;2023-03-24T15:21:26;21.10;56.30
65038;DHT22;51605;47.040;15.294;2023-03-24T15:23:53;21.10;56.40
65038;DHT22;51605;47.040;15.294;2023-03-24T15:26:22;21.10;56.20
65038;DHT22;51605;47.040;15.294;2023-03-24T15:28:58;21.10;56.20
65038;DHT22;51605;47.040;15.294;2023-03-24T15:31:25;21.00;56.20
65038;DHT22;51605;47.040;15.294;2023-03-24T15:34:03;21.10;56.30
65038;DHT22;51605;47.040;15.294;2023-03-24T15:36:34;21.00;56.20
65038;DHT22;51605;47.040;15.294;2023-03-24T15:39:15;21.00;56.20
65038;DHT22;51605;47.040;15.294;2023-03-24T15:41:42;21.00;56.20
65038;DHT22;51605;47.040;15.294;2023-03-24T15:44:08;21.00;56.50
65038;DHT22;51605;47.040;15.294;2023-03-24T15:46:34;21.00;56.30
65038;DHT22;51605;47.040;15.294;2023-03-24T15:48:59;21.00;56.30
65038;DHT22;51605;47.040;15.294;2023-03-24T15:51:48;21.00;56.30
65038;DHT22;51605;47.040;15.294;2023-03-24T15:54:40;21.00;56.20
65038;DHT22;51605;47.040;15.294;2023-03-24T15:57:19;21.00;56.10
65038;DHT22;51605;47.040;15.294;2023-03-24T16:02:32;21.00;56.10
65038;DHT22;51605;47.040;15.294;2023-03-24T16:05:04;21.00;56.20
65038;DHT22;51605;47.040;15.294;2023-03-24T16:07:35;21.00;56.20
65038;DHT22;51605;47.040;15.294;2023-03-24T16:10:05;21.00;56.30
65038;DHT22;51605;47.040;15.294;2023-03-24T16:12:36;21.00;56.30
65038;DHT22;51605;47.040;15.294;2023-03-24T16:15:03;20.90;56.30
65038;DHT22;51605;47.040;15.294;2023-03-24T16:17:33;20.90;56.20
65038;DHT22;51605;47.040;15.294;2023-03-24T16:19:59;20.90;56.30
65038;DHT22;51605;47.040;15.294;2023-03-24T16:22:24;20.90;56.30
65038;DHT22;51605;47.040;15.294;2023-03-24T16:24:50;20.90;56.30
65038;DHT22;51605;47.040;15.294;2023-03-24T16:27:15;20.90;56.40
65038;DHT22;51605;47.040;15.294;2023-03-24T16:29:41;20.90;56.30
65038;DHT22;51605;47.040;15.294;2023-03-24T16:32:08;20.90;56.30
65038;DHT22;51605;47.040;15.294;2023-03-24T16:34:34;20.90;56.40
65038;DHT22;51605;47.040;15.294;2023-03-24T16:37:01;20.90;56.30
65038;DHT22;51605;47.040;15.294;2023-03-24T16:39:29;20.90;56.30
65038;DHT22;51605;47.040;15.294;2023-03-24T16:41:55;20.90;56.30
65038;DHT22;51605;47.040;15.294;2023-03-24T16:44:21;20.90;56.40
65038;DHT22;51605;47.040;15.294;2023-03-24T16:46:50;21.00;56.40
65038;DHT22;51605;47.040;15.294;2023-03-24T16:49:17;21.00;56.60
65038;DHT22;51605;47.040;15.294;2023-03-24T16:51:44;21.00;56.40
65038;DHT22;51605;47.040;15.294;2023-03-24T16:54:10;21.00;56.40
65038;DHT22;51605;47.040;15.294;2023-03-24T16:56:37;21.00;56.40
65038;DHT22;51605;47.040;15.294;2023-03-24T16:59:03;21.00;56.30
65038;DHT22;51605;47.040;15.294;2023-03-24T17:01:32;21.00;56.30
65038;DHT22;51605;47.040;15.294;2023-03-24T17:04:04;21.00;56.40
65038;DHT22;51605;47.040;15.294;2023-03-24T17:06:35;21.00;56.30
65038;DHT22;51605;47.040;15.294;2023-03-24T17:09:03;21.00;56.30
65038;DHT22;51605;47.040;15.294;2023-03-24T17:11:35;21.00;56.20
65038;DHT22;51605;47.040;15.294;2023-03-24T17:14:02;21.00;56.30
65038;DHT22;51605;47.040;15.294;2023-03-24T17:16:34;21.00;56.30
65038;DHT22;51605;47.040;15.294;2023-03-24T17:19:04;21.00;56.30
65038;DHT22;51605;47.040;15.294;2023-03-24T17:22:14;21.00;56.30
65038;DHT22;51605;47.040;15.294;2023-03-24T17:24:21;20.90;56.20
65038;DHT22;51605;47.040;15.294;2023-03-24T17:26:48;21.00;56.20
65038;DHT22;51605;47.040;15.294;2023-03-24T17:29:13;21.00;56.20
65038;DHT22;51605;47.040;15.294;2023-03-24T17:31:40;21.00;56.20
65038;DHT22;51605;47.040;15.294;2023-03-24T17:34:12;21.00;56.20
65038;DHT22;51605;47.040;15.294;2023-03-24T17:36:38;21.00;56.20
65038;DHT22;51605;47.040;15.294;2023-03-24T17:39:04;21.00;56.30
65038;DHT22;51605;47.040;15.294;2023-03-24T17:41:30;21.00;56.30
65038;DHT22;51605;47.040;15.294;2023-03-24T17:43:56;21.00;56.40
65038;DHT22;51605;47.040;15.294;2023-03-24T17:46:22;21.00;56.20
65038;DHT22;51605;47.040;15.294;2023-03-24T17:48:48;21.00;56.20
65038;DHT22;51605;47.040;15.294;2023-03-24T17:51:14;21.00;57.10
65038;DHT22;51605;47.040;15.294;2023-03-24T17:53:39;21.00;56.20
65038;DHT22;51605;47.040;15.294;2023-03-24T17:56:05;21.00;56.20
65038;DHT22;51605;47.040;15.294;2023-03-24T17:58:33;21.00;56.20
65038;DHT22;51605;47.040;15.294;2023-03-24T18:01:01;21.00;56.30
65038;DHT22;51605;47.040;15.294;2023-03-24T18:03:27;21.00;56.30
65038;DHT22;51605;47.040;15.294;2023-03-24T18:05:55;21.00;56.30
65038;DHT22;51605;47.040;15.294;2023-03-24T18:08:20;21.00;56.40
65038;DHT22;51605;47.040;15.294;2023-03-24T18:10:46;21.00;56.40
65038;DHT22;51605;47.040;15.294;2023-03-24T18:13:12;20.90;56.40
65038;DHT22;51605;47.040;15.294;2023-03-24T18:15:40;20.90;56.40